Elko New Market, MN

1:10 AM CST on February 14, 2016 (GMT -0600)
Louis St. | | Change Station
CLOSE
Current Station
Personal Weather Station
Location: Elko New Market, MN
Elevation: 1129 ft
Nearby Weather Stations

Elev 1129 ft 44.57 °N, 93.36 °W | Updated 12 seconds ago

Overcast
Overcast
10.2 °F
Feels Like 10 °F
N
0.9
Wind Variable Wind from South
Gusts 2.5 mph

Today
High -- | Low -- °F
--% Chance of Precip.
Yesterday
High -- | Low -- °F
Precip. -- in
Pressure 30.25 in
Visibility 10.0 miles
Clouds Overcast 7000 ft
Windchill 10 °F
Dew Point -12 °F
Humidity 36%
Rainfall 0.00 in
Snow Depth Not available.
7:15 AM 5:40 PM
Waxing Crescent, 38% visible
METAR KLVN 140635Z AUTO 14005KT 10SM OVC070 M13/M18 A3025 RMK AO2
Pressure 30.25 in
Visibility 10.0 miles
Clouds Overcast 7000 ft
Windchill 10 °F
Dew Point -12 °F
Humidity 36%
Rainfall 0.00 in
Snow Depth Not available.
7:15 AM 5:40 PM
Waxing Crescent, 38% visible
METAR KLVN 140635Z AUTO 14005KT 10SM OVC070 M13/M18 A3025 RMK AO2

10-Day Weather Forecast

Almanac

Astronomy

Feb. 14, 2016 Rise Set
Actual Time
Civil Twilight
Nautical Twilight
Astronomical Twilight
Moon
Length of Visible Light
Length of Day
Tomorrow will be .
, % of the Moon is Illuminated

Today's Extremes

State Highs State Lows

Community

WunderPhotos

Upload Photos

1,892,757 photos uploaded!

WunderBlog® & News

Nearby

Air Quality

  Air Quality AQ Index Pollutant
Not available.

Snow Depth

Station Depth Elevation

Earthquake Activity

City Distance Mag. Time & Date
Minimum magnitude displayed is 2.5.

Coastal Water Temperatures

Place Temperature

Stations

Nearby Weather Stations

Station Location Temp. Windchill Dew Point Humidity Wind Precip. Elev Updated Type
                   

Watches & Warnings

There are currently no watches in effect.